Terminal Aerodrome Forecast
Issued by NWS Charleston, WV

Current Version | Previous Version | Graphics & Text | Print | Product List | Glossary On
Versions: 1 2 3 4 5 6 7 8 9 10 11 12 13 14 15 16 17 18 19 20 21 22 23 24
509
FTUS41 KRLX 222337
TAFCRW
TAF
KCRW 222337Z 2300/2324 08005KT P6SM -RA OVC030
      TEMPO 2306/2309 3SM -RA OVC015
     FM230900 06006KT 2SM -RA OVC012
     FM231100 03008G14KT 1SM -RA OVC010
     FM231300 02008KT 2SM -RA OVC007
     FM231600 02008KT 3SM -RA OVC008
     FM232000 02008G14KT 5SM -RA OVC015=

USA.gov is the U.S. government's official web portal to all federal, state and local government web resources and services.